Terminal Aerodrome Forecast
Issued by NWS Shreveport, LA

Home | Current Version | Previous Version | Text Only | Print | Product List | Glossary On
Versions: 1 2 3 4 5 6 7 8 9 10 11 12 13 14
000
FTUS44 KSHV 231723
TAFLFK
TAF
KLFK 231723Z 2318/2418 25005KT P6SM FEW040 SCT250
     FM232200 19006KT P6SM VCTS BKN060CB BKN250
     FM240200 17003KT P6SM SCT250
     FM241500 17004KT P6SM SCT040=

USA.gov is the U.S. government's official web portal to all federal, state and local government web resources and services.